Rechercher aéroport 
image banner adimage banner adimage banner ad
image banner ad

KSUU - Travis Afb

Situé à Fairfield, United States

ICAO - SUU, IATA -

Données fournies par Airmate  

Information générale

Coordonnées: N38°15'52" W121°55'27"
Élévation : 63 feet MSL.
Variation magnétique : 13° East
Voir autres Aéroports à California

Données opérationnelles

Special qualification required
Heure actuelle UTC:
Heure actuelle locale:
Météo
METAR: KSUU 020558Z AUTO 23023G28KT 10SM CLR 17/11 A2999 RMK AO2 PK WND 23033/48 SLP162 T01680111 10314 20168 50010 $
TAF: TAF KSUU 020300Z 0203/0309 23015G25KT 9999 SKC QNH2994INS TEMPO 0205/0209 23025G35KT 510003 BECMG 0215/0216 23010G15KT 9999 SKC QNH2996INS BECMG 0222/0223 23015G25KT 9999 SKC QNH2993INS TX32/0223Z TN13/0214Z
Voir NOTAMs / SUP AIP / TFR affectant cet aéroport [VIEW]
Fréquences de communication: [VIEW]

Pistes:

Identifiant RWYQFULongueur (ft)Largeur (ft)SurfaceLDA (ft)
03R47°10995150CONC
21L227°10995150CONC
03L47°11001300OTHER
21R227°11001300OTHER

Coordonnées de l'aéroport

Adresse: Fairfield United States

Vue satellite de KSUU